Time;durP1;ratioP1;P1;durP2;ratioP2;P2;SDS_P1;SDS_P2;PMS_P1;PMS_P2;Temp;Humidity;BMP_temperature;BMP_pressure;BME280_temperature;BME280_humidity;BME280_pressure;Samples;Min_cycle;Max_cycle;Signal;HPM_P1;HPM_P2
2022/07/01 00:02:00;;;;;;;15.70;5.43;;;;;;;21.78;53.61;100717.22;5020634;28;20065;-86
2022/07/01 00:04:26;;;;;;;10.57;5.00;;;;;;;21.88;53.50;100722.97;5018988;28;20138;-84
2022/07/01 00:06:53;;;;;;;9.38;4.70;;;;;;;21.90;54.39;100724.38;5035938;28;20037;-85
2022/07/01 00:09:19;;;;;;;13.38;5.10;;;;;;;21.92;55.83;100718.69;5038515;28;20040;-83
2022/07/01 00:11:44;;;;;;;10.85;4.78;;;;;;;21.80;57.42;100717.84;5054534;28;20492;-84
2022/07/01 00:14:10;;;;;;;15.05;5.22;;;;;;;21.59;58.22;100722.75;5019802;28;20511;-85
2022/07/01 00:16:36;;;;;;;12.63;5.63;;;;;;;21.51;58.90;100717.59;5062597;28;20035;-84
2022/07/01 00:19:02;;;;;;;11.63;5.70;;;;;;;21.49;58.82;100719.72;5056613;28;20029;-84
2022/07/01 00:21:28;;;;;;;14.50;5.65;;;;;;;21.52;58.83;100721.16;5054728;28;20043;-85
2022/07/01 00:23:53;;;;;;;15.63;5.40;;;;;;;21.39;58.85;100705.75;5023875;28;20040;-84
2022/07/01 00:26:19;;;;;;;12.27;5.45;;;;;;;21.47;59.06;100719.97;5038717;28;20059;-85
2022/07/01 00:28:45;;;;;;;15.77;5.35;;;;;;;21.38;59.60;100723.25;5023008;28;20048;-84
2022/07/01 00:31:10;;;;;;;9.07;5.18;;;;;;;21.43;59.41;100721.50;5037797;28;20068;-85
2022/07/01 00:33:36;;;;;;;9.27;5.03;;;;;;;21.32;60.03;100714.03;5034742;28;20131;-84
2022/07/01 00:36:01;;;;;;;14.60;5.28;;;;;;;21.25;60.25;100724.22;5065716;28;20036;-83
2022/07/01 00:38:27;;;;;;;12.30;4.90;;;;;;;21.19;60.82;100728.72;5054207;28;20111;-84
2022/07/01 00:40:53;;;;;;;11.73;4.85;;;;;;;21.15;60.69;100727.50;5037462;28;20067;-84
2022/07/01 00:43:22;;;;;;;14.07;5.13;;;;;;;21.18;60.94;100721.56;5038206;28;20131;-84
2022/07/01 00:45:48;;;;;;;10.18;5.28;;;;;;;21.23;61.25;100726.34;5031394;28;20040;-84
2022/07/01 00:48:14;;;;;;;13.02;4.75;;;;;;;21.21;61.39;100721.13;5037403;28;20036;-84
2022/07/01 00:50:40;;;;;;;11.38;4.90;;;;;;;21.15;61.40;100702.91;5037287;28;20052;-85
2022/07/01 00:53:06;;;;;;;14.50;5.00;;;;;;;21.13;61.34;100705.03;5017831;28;20037;-84
2022/07/01 00:55:31;;;;;;;9.35;5.00;;;;;;;21.11;61.09;100704.41;5007466;28;20040;-84
2022/07/01 00:57:57;;;;;;;15.95;5.28;;;;;;;21.14;60.99;100704.00;5032328;28;20036;-84
2022/07/01 01:00:23;;;;;;;14.90;5.40;;;;;;;21.03;60.82;100699.28;5017841;28;20040;-84
2022/07/01 01:02:49;;;;;;;8.65;4.90;;;;;;;21.02;60.86;100689.41;5038324;28;20040;-84
2022/07/01 01:05:15;;;;;;;10.27;5.00;;;;;;;21.03;60.90;100704.75;5037182;28;20040;-85
2022/07/01 01:07:41;;;;;;;12.00;5.15;;;;;;;21.05;61.01;100699.91;5020867;28;20021;-85
2022/07/01 01:10:06;;;;;;;11.20;4.80;;;;;;;20.95;60.96;100678.53;5020819;28;20043;-85
2022/07/01 01:12:33;;;;;;;18.98;5.03;;;;;;;21.08;60.57;100696.69;5029638;28;20039;-84
2022/07/01 01:14:58;;;;;;;8.82;4.47;;;;;;;21.01;59.67;100687.75;5053797;28;20071;-84
2022/07/01 01:17:24;;;;;;;8.52;4.07;;;;;;;21.05;58.57;100705.38;5053700;28;20060;-84
2022/07/01 01:19:50;;;;;;;11.88;3.88;;;;;;;21.02;57.84;100697.59;5036964;28;20036;-85
2022/07/01 01:22:16;;;;;;;13.35;3.70;;;;;;;21.03;57.44;100699.28;5049530;28;20029;-85
2022/07/01 01:24:44;;;;;;;7.80;3.65;;;;;;;21.00;57.38;100689.66;5052235;28;20024;-84
2022/07/01 01:27:09;;;;;;;10.52;3.38;;;;;;;21.10;56.96;100694.56;5045481;28;20120;-85
2022/07/01 01:29:35;;;;;;;10.35;3.60;;;;;;;21.02;56.27;100675.72;5053802;28;20175;-85
2022/07/01 01:32:01;;;;;;;8.75;3.33;;;;;;;21.18;55.75;100694.22;5053202;28;20036;-83
2022/07/01 01:34:27;;;;;;;8.45;3.33;;;;;;;21.15;55.70;100680.22;5037162;28;20036;-84
2022/07/01 01:36:53;;;;;;;9.77;3.00;;;;;;;21.27;55.16;100695.59;5020035;28;20472;-84
2022/07/01 01:39:19;;;;;;;6.40;2.92;;;;;;;21.18;54.09;100677.84;5033376;28;20544;-84
2022/07/01 01:41:44;;;;;;;4.63;2.50;;;;;;;21.31;53.35;100692.41;5035708;28;20531;-84
2022/07/01 01:44:10;;;;;;;4.82;2.60;;;;;;;21.36;52.72;100696.13;5033629;28;20053;-85
2022/07/01 01:46:36;;;;;;;8.80;2.60;;;;;;;21.32;52.45;100691.34;5030045;28;20063;-85
2022/07/01 01:49:02;;;;;;;8.93;2.30;;;;;;;21.31;52.26;100684.22;5017210;28;20441;-84
2022/07/01 01:51:28;;;;;;;6.60;2.30;;;;;;;21.37;51.82;100688.72;5025010;28;20063;-84
2022/07/01 01:53:54;;;;;;;6.75;2.40;;;;;;;21.40;51.62;100696.50;5022438;28;20028;-85
2022/07/01 01:56:19;;;;;;;6.07;2.20;;;;;;;21.37;51.44;100700.50;5035664;28;20052;-83
2022/07/01 01:58:45;;;;;;;12.13;2.40;;;;;;;21.34;51.48;100694.69;5050804;28;20803;-85
2022/07/01 02:01:11;;;;;;;8.32;2.47;;;;;;;21.48;52.12;100712.59;5034419;28;20185;-85
2022/07/01 02:03:38;;;;;;;7.32;2.70;;;;;;;21.46;52.27;100709.25;5019614;28;20119;-84
2022/07/01 02:06:04;;;;;;;7.25;2.53;;;;;;;21.51;52.64;100709.38;5020082;28;20443;-85
2022/07/01 02:08:30;;;;;;;6.28;2.65;;;;;;;21.43;52.77;100696.06;5036708;28;20520;-84
2022/07/01 02:10:56;;;;;;;7.30;2.63;;;;;;;21.55;52.27;100709.78;5037664;28;20042;-84
2022/07/01 02:13:21;;;;;;;8.05;3.28;;;;;;;21.57;52.25;100716.69;5017286;28;20118;-84
2022/07/01 02:15:49;;;;;;;8.15;3.10;;;;;;;21.46;52.70;100712.81;5052717;28;20127;-83
2022/07/01 02:18:14;;;;;;;8.82;3.90;;;;;;;21.46;54.18;100714.72;5057956;28;20482;-83
2022/07/01 02:20:41;;;;;;;11.20;4.05;;;;;;;21.44;54.84;100704.00;5021993;28;20130;-83
2022/07/01 02:23:07;;;;;;;10.85;4.75;;;;;;;21.58;56.07;100729.28;5039659;28;20093;-84
2022/07/01 02:25:32;;;;;;;8.52;5.30;;;;;;;21.47;57.31;100702.75;5036463;28;20036;-84
2022/07/01 02:27:58;;;;;;;15.27;5.82;;;;;;;21.64;57.81;100717.41;5034785;28;20511;-84
2022/07/01 02:30:25;;;;;;;26.33;6.30;;;;;;;21.70;58.11;100719.22;5070167;28;20043;-84
2022/07/01 02:32:50;;;;;;;12.52;6.60;;;;;;;21.65;58.00;100701.81;5069604;28;20106;-84
2022/07/01 02:35:16;;;;;;;13.68;6.65;;;;;;;21.78;58.14;100722.69;5022241;28;20021;-85
2022/07/01 02:37:41;;;;;;;10.57;6.25;;;;;;;21.64;58.68;100727.53;5036142;28;20392;-84
2022/07/01 02:40:09;;;;;;;15.55;7.20;;;;;;;21.44;59.50;100723.16;5034801;28;20527;-85
2022/07/01 02:42:35;;;;;;;18.38;7.00;;;;;;;21.53;59.30;100725.59;5052261;28;20032;-85
2022/07/01 02:45:02;;;;;;;16.52;6.82;;;;;;;21.55;59.37;100732.47;5052541;28;20492;-85
2022/07/01 02:47:38;;;;;;;15.73;6.78;;;;;;;21.47;59.89;100732.81;5036363;28;20071;-84
2022/07/01 02:50:05;;;;;;;12.95;6.60;;;;;;;21.63;59.26;100731.31;5038613;28;20086;-85
2022/07/01 02:52:30;;;;;;;16.08;6.07;;;;;;;21.71;59.08;100726.34;5032141;28;20064;-84
2022/07/01 02:54:56;;;;;;;13.10;5.93;;;;;;;21.68;58.92;100717.75;5017696;28;20481;-85
2022/07/01 02:57:22;;;;;;;16.95;6.10;;;;;;;21.78;58.81;100730.91;5040122;28;20120;-84
2022/07/01 02:59:48;;;;;;;21.92;5.93;;;;;;;21.74;59.14;100726.97;5036316;28;20420;-84
2022/07/01 03:02:14;;;;;;;17.08;6.20;;;;;;;21.59;59.08;100724.66;5035086;28;20052;-84
2022/07/01 03:04:39;;;;;;;13.85;5.93;;;;;;;21.62;59.53;100735.13;5019217;28;20037;-85
2022/07/01 03:07:05;;;;;;;20.48;5.82;;;;;;;21.73;58.80;100730.75;5034108;28;20060;-84
2022/07/01 03:09:30;;;;;;;16.50;5.55;;;;;;;21.77;58.79;100723.75;5035809;28;20044;-85
2022/07/01 03:11:56;;;;;;;14.10;5.97;;;;;;;21.81;58.43;100720.31;5040522;28;20143;-83
2022/07/01 03:14:22;;;;;;;10.02;5.75;;;;;;;21.99;58.04;100740.47;5032073;28;20033;-83
2022/07/01 03:16:47;;;;;;;17.20;5.88;;;;;;;22.00;58.02;100737.50;5035513;28;20123;-86
2022/07/01 03:19:14;;;;;;;19.35;5.70;;;;;;;22.09;57.75;100746.22;5070428;28;20032;-84
2022/07/01 03:21:40;;;;;;;15.85;6.00;;;;;;;22.13;57.60;100748.25;5037054;28;20075;-85
2022/07/01 03:24:06;;;;;;;12.32;5.80;;;;;;;22.11;57.64;100733.94;5068733;28;20041;-85
2022/07/01 03:26:32;;;;;;;13.18;6.10;;;;;;;22.18;57.73;100733.03;5053265;28;20048;-84
2022/07/01 03:28:58;;;;;;;17.30;6.18;;;;;;;22.20;57.70;100739.94;5028746;28;20035;-84
2022/07/01 03:31:23;;;;;;;16.20;6.55;;;;;;;22.30;57.57;100747.59;5052566;28;20559;-83
2022/07/01 03:33:49;;;;;;;14.95;7.05;;;;;;;22.21;57.26;100735.31;5051933;28;20465;-85
2022/07/01 03:36:15;;;;;;;19.52;6.47;;;;;;;22.31;57.37;100750.09;5035193;28;20045;-83
2022/07/01 03:38:40;;;;;;;20.75;6.78;;;;;;;22.43;56.96;100761.06;5032283;28;20424;-85
2022/07/01 03:41:06;;;;;;;21.10;6.47;;;;;;;22.49;56.79;100754.63;5034330;28;20044;-84
2022/07/01 03:43:31;;;;;;;18.45;6.70;;;;;;;22.47;56.58;100748.53;5035750;28;20025;-84
2022/07/01 03:45:57;;;;;;;19.67;6.18;;;;;;;22.46;55.97;100735.94;5051780;28;20115;-85
2022/07/01 03:48:23;;;;;;;21.25;9.23;;;;;;;22.67;55.83;100764.63;5049756;28;20464;-84
2022/07/01 03:50:48;;;;;;;14.88;6.30;;;;;;;22.68;55.61;100755.31;5043287;28;20397;-83
2022/07/01 03:55:58;;;;;;;22.23;7.15;;;;;;;22.76;54.89;100745.94;5072870;28;20515;-85
2022/07/01 03:58:23;;;;;;;16.00;6.18;;;;;;;22.77;54.77;100747.59;5039028;28;20048;-85
2022/07/01 04:00:49;;;;;;;14.50;5.75;;;;;;;22.88;54.79;100763.19;5054912;28;20040;-86
2022/07/01 04:03:15;;;;;;;19.17;6.13;;;;;;;22.89;54.26;100762.09;5022533;28;20033;-83
2022/07/01 04:05:40;;;;;;;21.83;5.88;;;;;;;22.92;54.37;100755.31;5021344;28;20407;-86
2022/07/01 04:08:07;;;;;;;24.88;6.68;;;;;;;22.83;54.81;100737.56;5038984;28;20041;-85
2022/07/01 04:10:33;;;;;;;24.88;6.78;;;;;;;22.88;55.37;100738.53;5060062;28;20048;-84
2022/07/01 04:13:00;;;;;;;25.63;7.32;;;;;;;23.05;55.21;100757.81;5035118;28;20033;-84
2022/07/01 04:15:26;;;;;;;25.45;7.45;;;;;;;22.94;55.38;100748.53;5016899;28;20116;-84
2022/07/01 04:17:51;;;;;;;29.23;8.90;;;;;;;23.07;55.45;100752.13;5054983;28;20036;-84
2022/07/01 04:20:17;;;;;;;20.48;7.32;;;;;;;23.15;55.40;100755.28;5037545;28;20028;-85
2022/07/01 04:22:43;;;;;;;24.45;7.80;;;;;;;23.13;55.73;100756.59;5021864;28;20102;-85
2022/07/01 04:25:08;;;;;;;21.40;8.77;;;;;;;23.10;55.70;100757.09;5050661;28;20033;-85
2022/07/01 04:27:34;;;;;;;26.58;10.30;;;;;;;23.05;55.79;100763.31;5038180;28;20063;-84
2022/07/01 04:30:02;;;;;;;25.35;13.50;;;;;;;23.07;55.49;100752.94;5019886;28;20036;-84
2022/07/01 04:32:28;;;;;;;34.97;18.58;;;;;;;22.90;55.15;100766.53;5043085;28;20506;-84
2022/07/01 04:34:54;;;;;;;38.85;19.17;;;;;;;23.01;54.81;100783.22;5037461;28;20024;-84
2022/07/01 04:37:19;;;;;;;47.28;18.58;;;;;;;23.04;54.69;100769.88;5055208;28;20514;-83
2022/07/01 04:39:45;;;;;;;29.85;15.35;;;;;;;23.11;54.21;100764.28;5038084;28;20033;-84
2022/07/01 04:42:11;;;;;;;24.02;12.60;;;;;;;23.14;54.07;100774.75;5037809;28;20043;-85
2022/07/01 04:44:37;;;;;;;23.23;10.77;;;;;;;23.08;53.77;100760.06;5034865;28;20412;-85
2022/07/01 04:47:03;;;;;;;29.13;10.45;;;;;;;23.08;53.69;100775.69;5018525;28;20025;-84
2022/07/01 04:49:29;;;;;;;23.50;10.40;;;;;;;22.99;53.55;100780.72;5038294;28;20099;-84
2022/07/01 04:51:55;;;;;;;30.73;9.65;;;;;;;22.72;53.76;100772.13;5035222;28;20040;-84
2022/07/01 04:54:20;;;;;;;21.90;9.15;;;;;;;22.57;53.74;100744.38;5018176;28;20055;-85
2022/07/01 04:56:46;;;;;;;21.50;8.48;;;;;;;22.66;53.72;100767.59;5058683;28;20532;-85
2022/07/01 04:59:12;;;;;;;27.80;9.55;;;;;;;22.52;53.75;100762.38;5057513;28;20385;-84
2022/07/01 05:01:38;;;;;;;25.13;8.57;;;;;;;22.66;53.91;100771.16;5053612;28;20093;-85
2022/07/01 05:04:07;;;;;;;23.45;8.90;;;;;;;22.84;53.13;100775.69;5016802;28;20037;-85
2022/07/01 05:06:33;;;;;;;28.05;9.32;;;;;;;22.77;53.68;100780.47;5038481;28;20037;-85
2022/07/01 05:08:59;;;;;;;30.67;8.50;;;;;;;23.01;53.46;100786.78;5038877;28;20024;-84
2022/07/01 05:11:25;;;;;;;30.60;11.77;;;;;;;23.17;53.29;100785.22;5073412;28;20043;-86
2022/07/01 05:13:51;;;;;;;24.33;9.45;;;;;;;23.28;52.76;100776.16;5021866;28;20032;-84
2022/07/01 05:16:17;;;;;;;38.67;9.38;;;;;;;23.31;52.99;100785.78;5035567;28;20033;-84
2022/07/01 05:24:11;;;;;;;40.13;9.70;;;;;;;23.68;51.86;100779.94;5038413;28;20052;-85
2022/07/01 05:26:36;;;;;;;40.28;9.00;;;;;;;23.90;51.23;100780.09;5021458;28;20124;-85
2022/07/01 05:29:03;;;;;;;35.03;8.98;;;;;;;24.05;51.14;100777.66;5029375;28;20413;-85
2022/07/01 05:31:28;;;;;;;30.90;9.25;;;;;;;24.17;50.70;100778.41;5026340;28;20115;-85
2022/07/01 05:33:54;;;;;;;25.40;8.93;;;;;;;24.30;50.40;100793.72;5031170;28;20056;-85
2022/07/01 05:36:20;;;;;;;34.28;9.65;;;;;;;24.55;49.56;100792.50;5038440;28;20397;-83
2022/07/01 05:38:46;;;;;;;40.65;9.52;;;;;;;24.69;49.35;100790.25;5029391;28;20535;-83
2022/07/01 05:41:12;;;;;;;24.85;9.48;;;;;;;24.91;48.53;100793.91;5053246;28;20127;-83
2022/07/01 05:43:38;;;;;;;27.75;9.50;;;;;;;25.19;48.34;100789.34;5061759;28;20056;-84
2022/07/01 05:46:04;;;;;;;19.83;8.20;;;;;;;25.23;47.44;100777.56;5042344;28;20519;-83
2022/07/01 05:48:29;;;;;;;30.58;8.45;;;;;;;25.56;46.11;100777.69;5019765;28;20036;-85
2022/07/01 05:50:55;;;;;;;19.15;9.18;;;;;;;25.90;44.97;100773.69;5033379;28;20144;-84
2022/07/01 05:53:21;;;;;;;26.20;8.75;;;;;;;26.08;44.52;100777.13;5018151;28;20556;-84
2022/07/01 05:55:46;;;;;;;32.58;8.88;;;;;;;26.09;44.15;100773.31;5053153;28;20070;-84
2022/07/01 05:58:12;;;;;;;22.02;8.32;;;;;;;26.19;44.05;100778.06;5046325;28;20029;-85
2022/07/01 06:00:41;;;;;;;29.10;8.82;;;;;;;26.42;43.77;100769.44;5036102;28;20053;-85
2022/07/01 06:03:08;;;;;;;30.98;9.63;;;;;;;26.87;42.83;100778.31;5023606;28;20040;-85
2022/07/01 06:05:34;;;;;;;34.33;10.07;;;;;;;27.14;42.33;100780.97;5023818;28;20408;-85
2022/07/01 06:08:00;;;;;;;28.65;9.18;;;;;;;27.54;41.91;100777.56;5052990;28;20033;-85
2022/07/01 06:10:26;;;;;;;32.25;9.60;;;;;;;27.99;40.90;100784.31;5036202;28;20041;-85
2022/07/01 06:12:51;;;;;;;27.85;10.18;;;;;;;28.60;40.01;100782.69;5028233;28;20411;-86
2022/07/01 06:15:17;;;;;;;29.27;10.80;;;;;;;29.17;39.10;100791.72;5036495;28;20089;-85
2022/07/01 06:17:43;;;;;;;32.55;10.50;;;;;;;29.57;37.98;100792.63;5052808;28;20373;-85
2022/07/01 06:20:08;;;;;;;30.20;9.57;;;;;;;29.91;37.51;100787.22;5036156;28;20504;-85
2022/07/01 06:22:34;;;;;;;21.85;8.57;;;;;;;30.15;36.37;100792.84;5073492;28;20036;-85
2022/07/01 06:25:00;;;;;;;28.70;9.23;;;;;;;30.64;35.46;100772.47;5036628;28;20039;-86
2022/07/01 06:27:26;;;;;;;26.05;8.48;;;;;;;31.03;34.80;100790.16;5023725;28;20043;-84
2022/07/01 06:29:52;;;;;;;21.55;8.75;;;;;;;31.02;34.10;100796.81;5033449;28;20052;-86
2022/07/01 06:32:18;;;;;;;29.95;8.25;;;;;;;31.26;34.23;100794.88;5036061;28;20040;-85
2022/07/01 06:34:44;;;;;;;26.88;7.80;;;;;;;31.69;33.83;100799.63;5035984;28;20063;-86
2022/07/01 06:37:10;;;;;;;19.95;8.27;;;;;;;31.67;33.30;100782.41;5036232;28;20459;-85
2022/07/01 06:39:35;;;;;;;22.23;8.10;;;;;;;32.08;32.70;100796.56;5057010;28;20063;-86
2022/07/01 06:42:01;;;;;;;22.63;8.27;;;;;;;32.28;32.40;100800.13;5044692;28;20049;-86
2022/07/01 06:44:27;;;;;;;26.80;8.60;;;;;;;32.38;32.21;100786.88;5031070;28;20037;-86
2022/07/01 06:46:54;;;;;;;19.48;8.23;;;;;;;32.21;31.29;100794.94;5036762;28;20078;-86
2022/07/01 06:49:20;;;;;;;22.65;8.02;;;;;;;32.58;30.58;100796.84;5027730;28;20040;-86
2022/07/01 06:51:46;;;;;;;22.90;7.57;;;;;;;32.51;31.30;100801.16;5039360;28;20040;-85
2022/07/01 06:54:11;;;;;;;19.73;8.13;;;;;;;32.73;31.64;100787.41;5054012;28;20115;-85
2022/07/01 06:56:37;;;;;;;20.55;7.75;;;;;;;32.72;31.28;100796.06;5055964;28;20048;-84
2022/07/01 06:59:03;;;;;;;10.90;5.05;;;;;;;32.71;28.99;100783.25;5054075;28;20032;-87
2022/07/01 07:01:29;;;;;;;16.95;6.45;;;;;;;32.69;29.75;100786.38;5052438;28;20504;-85
2022/07/01 07:03:54;;;;;;;13.65;4.88;;;;;;;32.37;28.61;100776.88;5033485;28;20496;-84
2022/07/01 07:06:20;;;;;;;12.32;4.43;;;;;;;32.43;27.87;100777.63;5028546;28;20045;-86
2022/07/01 07:08:46;;;;;;;7.90;2.83;;;;;;;32.66;26.81;100797.28;5020044;28;20448;-85
2022/07/01 07:11:14;;;;;;;7.93;2.88;;;;;;;32.43;27.23;100788.75;5069569;28;20496;-86
2022/07/01 07:13:40;;;;;;;7.72;2.67;;;;;;;32.56;27.48;100781.59;5019767;28;20552;-87
2022/07/01 07:16:09;;;;;;;10.02;2.20;;;;;;;32.62;27.06;100774.00;5018895;28;20189;-87
2022/07/01 07:19:10;;;;;;;;;;;;;;;;;;;;;
2022/07/01 07:21:39;;;;;;;9.75;3.33;;;;;;;32.82;26.69;100787.50;5050426;28;20487;-86
2022/07/01 07:24:05;;;;;;;8.00;2.80;;;;;;;33.10;26.44;100790.34;5052277;28;20044;-85
2022/07/01 07:26:31;;;;;;;7.53;2.70;;;;;;;33.38;25.97;100800.31;5031945;28;20107;-85
2022/07/01 07:28:57;;;;;;;9.15;2.38;;;;;;;33.37;26.21;100798.69;5042342;28;20397;-86
2022/07/01 07:31:22;;;;;;;6.68;2.55;;;;;;;33.50;26.01;100810.13;5052448;28;20068;-85
2022/07/01 07:33:48;;;;;;;7.85;1.80;;;;;;;33.31;25.94;100804.69;5055979;28;20135;-85
2022/07/01 07:36:14;;;;;;;5.65;1.90;;;;;;;33.13;27.13;100810.06;5055326;28;20060;-85
2022/07/01 07:38:39;;;;;;;5.30;2.10;;;;;;;33.34;26.56;100804.06;5073675;28;20086;-83
2022/07/01 07:41:05;;;;;;;10.23;1.90;;;;;;;33.08;26.69;100809.31;5038813;28;20465;-85
2022/07/01 07:43:31;;;;;;;9.85;2.15;;;;;;;33.24;27.07;100819.03;5022526;28;20516;-87
2022/07/01 07:45:56;;;;;;;8.80;2.08;;;;;;;33.40;26.77;100803.63;5039551;28;20488;-84
2022/07/01 07:48:22;;;;;;;6.65;2.38;;;;;;;33.70;26.82;100812.50;5053060;28;20036;-91
2022/07/01 07:50:48;;;;;;;5.65;1.98;;;;;;;33.46;26.55;100820.25;5007468;28;20482;-86
2022/07/01 07:53:13;;;;;;;5.40;1.90;;;;;;;33.53;26.58;100815.06;5051745;28;20091;-86
2022/07/01 07:55:39;;;;;;;6.53;2.10;;;;;;;33.72;26.44;100823.34;5055226;28;20044;-85
2022/07/01 07:58:06;;;;;;;8.95;2.38;;;;;;;33.80;26.74;100809.47;5074049;28;20095;-86
2022/07/01 08:00:31;;;;;;;9.52;2.53;;;;;;;33.75;26.46;100804.03;5042028;28;20045;-87
2022/07/01 08:02:57;;;;;;;12.77;3.13;;;;;;;33.87;25.20;100809.03;5039695;28;20035;-87
2022/07/01 08:05:24;;;;;;;13.00;3.53;;;;;;;33.61;25.56;100806.00;5052632;28;20465;-87
2022/07/01 08:07:52;;;;;;;12.95;2.83;;;;;;;34.02;25.88;100817.06;5075613;28;20052;-86
2022/07/01 08:10:22;;;;;;;8.88;2.45;;;;;;;34.10;25.76;100795.16;5021297;28;20119;-87
2022/07/01 08:12:50;;;;;;;8.95;2.10;;;;;;;34.38;26.19;100807.03;5034377;28;20052;-84
2022/07/01 08:15:20;;;;;;;4.88;1.98;;;;;;;34.40;25.93;100801.94;5036407;28;20055;-84
2022/07/01 08:17:49;;;;;;;8.32;2.50;;;;;;;34.49;26.91;100802.81;5048973;28;20045;-84
2022/07/01 08:20:18;;;;;;;8.77;2.42;;;;;;;34.54;26.98;100799.91;5051169;28;20055;-84
2022/07/01 08:22:44;;;;;;;5.47;2.15;;;;;;;34.76;26.12;100818.59;5036336;28;20044;-83
2022/07/01 08:25:12;;;;;;;7.07;2.60;;;;;;;34.63;26.66;100817.56;5037496;28;20052;-83
2022/07/01 08:27:40;;;;;;;6.40;2.38;;;;;;;34.55;27.03;100812.69;5053561;28;20036;-83
2022/07/01 08:30:09;;;;;;;7.05;2.13;;;;;;;34.17;27.49;100804.72;5040577;28;20052;-85
2022/07/01 08:32:35;;;;;;;6.93;2.35;;;;;;;33.37;29.45;100811.81;5034672;28;20102;-82
2022/07/01 08:35:03;;;;;;;8.63;3.05;;;;;;;34.14;28.12;100812.91;5019325;28;20032;-83
2022/07/01 08:37:28;;;;;;;5.07;2.50;;;;;;;34.50;27.66;100814.81;5018434;28;20148;-82
2022/07/01 08:39:54;;;;;;;15.48;2.70;;;;;;;34.87;27.27;100805.19;5019301;28;20086;-82
2022/07/01 08:42:20;;;;;;;10.18;2.45;;;;;;;34.48;28.35;100806.75;5034312;28;20037;-82
2022/07/01 08:44:45;;;;;;;8.88;2.58;;;;;;;33.49;29.69;100811.28;5067186;28;20032;-82
2022/07/01 08:47:13;;;;;;;6.35;2.50;;;;;;;33.10;31.06;100830.16;5036156;28;20123;-83
2022/07/01 08:49:38;;;;;;;9.88;2.67;;;;;;;33.34;30.84;100829.97;5021696;28;20040;-82
2022/07/01 08:52:04;;;;;;;7.47;2.67;;;;;;;34.23;29.82;100833.31;5037359;28;20119;-83
2022/07/01 08:54:30;;;;;;;7.03;2.97;;;;;;;33.71;31.97;100842.00;5037189;28;20389;-83
2022/07/01 08:56:55;;;;;;;6.03;2.75;;;;;;;33.25;31.66;100837.41;5037325;28;20525;-83
2022/07/01 08:59:25;;;;;;;12.00;2.67;;;;;;;33.29;32.09;100835.63;5033701;28;20409;-83
2022/07/01 09:02:01;;;;;;;6.75;3.05;;;;;;;32.90;32.63;100836.94;5033752;28;20044;-82
2022/07/01 09:04:27;;;;;;;8.25;3.05;;;;;;;33.61;32.12;100843.06;5018531;28;20172;-83
2022/07/01 09:07:00;;;;;;;5.75;3.05;;;;;;;34.20;31.38;100832.00;5036496;28;20117;-83
2022/07/01 09:09:26;;;;;;;8.27;3.30;;;;;;;34.08;32.13;100848.44;5005592;28;20159;-83
2022/07/01 09:11:55;;;;;;;9.90;3.80;;;;;;;34.38;32.44;100838.53;5033546;28;20520;-83
2022/07/01 09:14:23;;;;;;;7.47;3.47;;;;;;;34.78;31.45;100861.00;5034256;28;20037;-82
2022/07/01 09:17:02;;;;;;;8.02;3.40;;;;;;;34.64;31.99;100838.72;5020297;28;20131;-83
2022/07/01 09:19:32;;;;;;;9.63;3.90;;;;;;;34.40;33.00;100836.25;5051641;28;20040;-83
2022/07/01 09:22:00;;;;;;;7.35;3.72;;;;;;;34.75;33.01;100841.28;5071727;28;20111;-84
2022/07/01 09:24:33;;;;;;;7.35;3.88;;;;;;;35.14;32.35;100845.25;5034585;28;20037;-84
2022/07/01 09:27:10;;;;;;;10.73;3.75;;;;;;;35.31;32.28;100850.94;5053675;28;20036;-82
2022/07/01 09:29:56;;;;;;;7.47;3.58;;;;;;;36.18;30.94;100853.91;5071837;28;20039;-83
2022/07/01 09:32:22;;;;;;;9.23;4.05;;;;;;;36.12;31.64;100861.63;5047872;28;20029;-83
2022/07/01 09:34:49;;;;;;;10.05;4.70;;;;;;;36.57;31.56;100852.03;5019479;28;20155;-84
2022/07/01 09:37:22;;;;;;;9.73;4.68;;;;;;;34.56;35.21;100853.44;5032354;28;20036;-81
2022/07/01 09:39:51;;;;;;;14.32;5.15;;;;;;;35.08;34.08;100859.34;5053117;28;20136;-83
2022/07/01 09:42:18;;;;;;;8.90;5.10;;;;;;;36.70;31.52;100841.84;5053149;28;20049;-83
2022/07/01 09:45:06;;;;;;;10.70;4.70;;;;;;;37.03;31.23;100852.47;5036637;28;20033;-83
2022/07/01 09:47:32;;;;;;;9.18;4.80;;;;;;;35.95;32.51;100832.81;5046021;28;20075;-83
2022/07/01 09:49:58;;;;;;;6.95;4.30;;;;;;;36.59;31.07;100841.38;5033716;28;20032;-84
2022/07/01 09:52:24;;;;;;;9.23;4.30;;;;;;;36.19;30.69;100849.94;5027708;28;20396;-82
2022/07/01 09:54:49;;;;;;;11.85;4.50;;;;;;;36.83;29.30;100843.63;5035708;28;20044;-83
2022/07/01 09:57:16;;;;;;;6.68;4.00;;;;;;;37.67;27.68;100840.28;5036114;28;20169;-83
2022/07/01 09:59:42;;;;;;;12.55;4.00;;;;;;;38.34;26.00;100833.66;5036669;28;20045;-83
2022/07/01 10:02:08;;;;;;;6.68;3.70;;;;;;;38.08;25.53;100841.53;5052367;28;20454;-84
2022/07/01 10:04:34;;;;;;;9.35;3.50;;;;;;;37.87;25.67;100852.72;5052980;28;20428;-82
2022/07/01 10:07:06;;;;;;;7.30;3.80;;;;;;;37.49;26.29;100837.59;5053009;28;20068;-83
2022/07/01 10:09:35;;;;;;;12.85;4.25;;;;;;;38.43;24.96;100842.81;5052583;28;20473;-83
2022/07/01 10:12:11;;;;;;;5.80;4.00;;;;;;;38.42;25.76;100846.81;5033335;28;20040;-82
2022/07/01 10:14:37;;;;;;;11.43;4.05;;;;;;;39.33;24.84;100845.13;5032978;28;20052;-83
2022/07/01 10:17:03;;;;;;;8.90;4.10;;;;;;;39.05;25.81;100834.59;5050849;28;20043;-83
2022/07/01 10:19:30;;;;;;;12.10;4.63;;;;;;;39.16;25.68;100835.75;5052619;28;20032;-81
2022/07/01 10:21:59;;;;;;;9.52;4.22;;;;;;;39.63;25.73;100846.53;5035850;28;20041;-83
2022/07/01 10:24:25;;;;;;;9.88;4.45;;;;;;;38.90;27.57;100844.50;5061982;28;20025;-83
2022/07/01 10:26:51;;;;;;;9.48;4.40;;;;;;;39.02;27.43;100841.72;5035355;28;20094;-85
2022/07/01 10:29:27;;;;;;;14.38;5.05;;;;;;;38.83;27.66;100858.31;5035422;28;20040;-84
2022/07/01 10:31:53;;;;;;;11.52;4.80;;;;;;;38.75;27.85;100842.34;5069833;28;20051;-83
2022/07/01 10:34:19;;;;;;;10.48;4.38;;;;;;;37.92;28.90;100842.09;5019248;28;20429;-83
2022/07/01 10:36:44;;;;;;;9.52;4.65;;;;;;;38.60;28.35;100857.88;5052253;28;20477;-84
2022/07/01 10:39:17;;;;;;;6.68;4.70;;;;;;;38.17;29.42;100839.47;5032677;28;20040;-82
2022/07/01 10:41:45;;;;;;;10.00;4.90;;;;;;;35.96;31.90;100862.44;5025223;28;20037;-83
2022/07/01 10:44:12;;;;;;;11.27;5.10;;;;;;;36.32;32.00;100851.75;5052411;28;20037;-83
2022/07/01 10:46:47;;;;;;;22.63;5.82;;;;;;;36.98;31.16;100853.47;5034752;28;20036;-83
2022/07/01 10:49:16;;;;;;;15.32;5.25;;;;;;;36.96;31.17;100845.38;5070582;28;20039;-83
2022/07/01 10:51:55;;;;;;;12.65;5.57;;;;;;;37.16;31.03;100831.84;5051782;28;20381;-85
2022/07/01 10:54:36;;;;;;;12.52;5.20;;;;;;;36.82;31.64;100829.97;5031592;28;20159;-83
2022/07/01 10:57:32;;;;;;;12.60;5.57;;;;;;;37.20;31.41;100840.38;5067611;28;20098;-84
2022/07/01 11:00:20;;;;;;;11.05;5.15;;;;;;;36.87;31.75;100840.97;5044759;28;20071;-83
2022/07/01 11:02:46;;;;;;;11.70;5.03;;;;;;;36.25;32.81;100851.44;5071211;28;20040;-83
2022/07/01 11:05:13;;;;;;;10.48;5.25;;;;;;;34.65;35.78;100829.22;5055643;28;20059;-83
2022/07/01 11:07:42;;;;;;;6.53;4.85;;;;;;;34.30;36.88;100849.63;5052443;28;20491;-82
2022/07/01 11:10:08;;;;;;;8.00;5.70;;;;;;;34.75;36.33;100841.28;5055986;28;20044;-83
2022/07/01 11:12:34;;;;;;;10.23;5.00;;;;;;;34.50;36.61;100814.81;5039450;28;20051;-83
2022/07/01 11:15:05;;;;;;;21.63;5.75;;;;;;;34.24;37.59;100829.41;5037130;28;20047;-83
2022/07/01 11:17:31;;;;;;;8.68;5.10;;;;;;;33.91;37.78;100834.34;5038738;28;20461;-84
2022/07/01 11:19:57;;;;;;;9.77;5.35;;;;;;;33.58;38.41;100840.09;5020408;28;20040;-83
2022/07/01 11:22:27;;;;;;;23.42;5.80;;;;;;;33.89;37.75;100825.47;5073373;28;20544;-82
2022/07/01 11:24:53;;;;;;;9.32;5.07;;;;;;;34.36;37.17;100823.25;5035743;28;20032;-82
2022/07/01 11:27:21;;;;;;;12.48;5.88;;;;;;;34.60;36.05;100832.13;5055583;28;20322;-83
2022/07/01 11:29:54;;;;;;;19.63;5.78;;;;;;;34.44;36.63;100816.88;5040270;28;20031;-82